Terminal Aerodrome Forecast
Issued by NWS

Home | Current Version | Previous Version | Text Only | Print | Product List | Glossary On
Versions: 1 2 3 4 5 6 7 8 9 10 11 12 13 14 15 16 17 18 19 20 21 22 23 24
000
FTUS43 KSGF 250900 AAA
TAFBBG
TAF AMD
KBBG 250904Z 2509/2606 VRB04KT P6SM SCT005 SCT015
      TEMPO 2511/2514 4SM BR BKN004
     FM251500 16006KT 6SM BR BKN015
     FM251600 16008KT P6SM BKN020
     FM252000 16009G17KT P6SM SCT035
     FM260000 16006KT P6SM SCT050 BKN200 PROB30 2603/2606 5SM -TSRA
      BR BKN030CB=

USA.gov is the U.S. government's official web portal to all federal, state and local government web resources and services.